Time;durP1;ratioP1;P1;durP2;ratioP2;P2;SDS_P1;SDS_P2;PMS_P1;PMS_P2;Temp;Humidity;BMP_temperature;BMP_pressure;BME280_temperature;BME280_humidity;BME280_pressure;Samples;Min_cycle;Max_cycle;Signal;HPM_P1;HPM_P2
2021/11/20 00:02:15;;;;;;;6.82;1.23;;;9.80;83.00;;;;;;4814626;29;20057;-73
2021/11/20 00:04:44;;;;;;;4.00;1.13;;;9.90;83.00;;;;;;4827075;29;20046;-73
2021/11/20 00:07:12;;;;;;;5.25;1.30;;;9.90;82.80;;;;;;4822069;29;20069;-73
2021/11/20 00:09:41;;;;;;;6.60;1.48;;;10.00;82.80;;;;;;4826187;29;20061;-73
2021/11/20 00:12:14;;;;;;;4.95;1.30;;;10.00;82.90;;;;;;4832418;29;20080;-73
2021/11/20 00:14:42;;;;;;;;;;;10.00;82.90;;;;;;4825810;29;20050;-73
2021/11/20 00:17:09;;;;;;;8.70;1.77;;;10.00;83.00;;;;;;4823369;29;19932;-73
2021/11/20 00:19:37;;;;;;;9.30;2.05;;;10.00;83.10;;;;;;4823157;29;20524;-73
2021/11/20 00:22:12;;;;;;;8.88;1.60;;;10.00;83.20;;;;;;4821312;29;20438;-74
2021/11/20 00:24:45;;;;;;;7.88;1.55;;;10.00;83.30;;;;;;4819897;29;20062;-73
2021/11/20 00:27:18;;;;;;;9.97;1.97;;;10.00;83.40;;;;;;4821306;29;20050;-72
2021/11/20 00:29:57;;;;;;;8.25;1.67;;;10.00;83.50;;;;;;4822433;29;20559;-74
2021/11/20 00:32:29;;;;;;;6.55;1.63;;;10.00;83.60;;;;;;4813188;29;20050;-73
2021/11/20 00:35:04;;;;;;;6.25;1.70;;;10.00;83.70;;;;;;4809931;29;20508;-73
2021/11/20 00:37:33;;;;;;;5.57;1.70;;;10.00;83.80;;;;;;4813120;29;20054;-72
2021/11/20 00:40:02;;;;;;;9.80;1.92;;;10.00;83.90;;;;;;4805137;29;20054;-72
2021/11/20 00:42:30;;;;;;;10.90;1.80;;;10.00;84.00;;;;;;4819886;29;20043;-72
2021/11/20 00:45:01;;;;;;;10.90;2.25;;;10.00;84.10;;;;;;4805015;29;20050;-72
2021/11/20 00:47:28;;;;;;;9.57;1.58;;;10.00;84.20;;;;;;4808008;29;20504;-72
2021/11/20 00:49:57;;;;;;;6.90;1.70;;;10.00;84.20;;;;;;4824494;29;20069;-73
2021/11/20 00:52:25;;;;;;;7.63;1.70;;;10.00;84.30;;;;;;4821743;29;20051;-72
2021/11/20 00:54:54;;;;;;;5.28;1.63;;;10.00;84.20;;;;;;4837004;29;20046;-72
2021/11/20 00:57:23;;;;;;;8.20;1.60;;;10.00;84.30;;;;;;4822933;29;20046;-72
2021/11/20 00:59:51;;;;;;;4.82;1.65;;;10.00;84.30;;;;;;4822225;29;20046;-72
2021/11/20 01:02:19;;;;;;;7.82;1.73;;;10.00;84.40;;;;;;4806492;29;20046;-72
2021/11/20 01:04:48;;;;;;;6.90;1.70;;;10.00;84.50;;;;;;4843534;29;20053;-72
2021/11/20 01:07:16;;;;;;;6.03;1.50;;;10.00;84.50;;;;;;4825916;29;20055;-72
2021/11/20 01:09:45;;;;;;;11.38;1.73;;;10.00;84.50;;;;;;4811728;29;20055;-72
2021/11/20 01:12:17;;;;;;;5.15;1.75;;;10.00;84.50;;;;;;4822403;29;20050;-72
2021/11/20 01:14:48;;;;;;;9.63;2.05;;;10.00;84.60;;;;;;4839957;29;20068;-72
2021/11/20 01:17:17;;;;;;;10.15;1.70;;;10.00;84.60;;;;;;4842409;29;20055;-73
2021/11/20 01:19:46;;;;;;;9.90;1.73;;;10.00;84.70;;;;;;4833327;29;20030;-72
2021/11/20 01:22:37;;;;;;;6.93;1.83;;;10.00;84.60;;;;;;4813821;29;20055;-73
2021/11/20 01:25:24;;;;;;;8.27;1.85;;;10.00;84.60;;;;;;4846680;29;20034;-73
2021/11/20 01:28:11;;;;;;;7.97;1.85;;;10.00;84.60;;;;;;4827958;29;20065;-72
2021/11/20 01:30:56;;;;;;;9.65;2.08;;;10.00;84.60;;;;;;4826372;29;20405;-72
2021/11/20 01:33:34;;;;;;;5.22;1.60;;;10.00;84.70;;;;;;4825476;29;20053;-72
2021/11/20 01:36:03;;;;;;;6.65;1.70;;;10.00;84.70;;;;;;4829225;29;20505;-72
2021/11/20 01:38:31;;;;;;;6.47;1.75;;;10.00;84.70;;;;;;4829887;29;20046;-71
2021/11/20 01:41:11;;;;;;;7.18;1.73;;;10.00;84.70;;;;;;4858944;29;20053;-71
2021/11/20 01:44:15;;;;;;;8.30;1.83;;;10.00;84.60;;;;;;4826547;29;20054;-71
2021/11/20 01:46:48;;;;;;;7.68;1.95;;;10.00;84.50;;;;;;4818402;29;20062;-72
2021/11/20 01:49:28;;;;;;;;;;;10.10;84.50;;;;;;4824775;29;20073;-71
2021/11/20 01:52:08;;;;;;;6.75;1.77;;;10.00;84.50;;;;;;4825581;29;19924;-72
2021/11/20 01:54:44;;;;;;;7.18;1.70;;;10.00;84.50;;;;;;4817595;29;20055;-71
2021/11/20 01:57:54;;;;;;;4.82;1.73;;;10.00;84.50;;;;;;4824519;29;20154;-72
2021/11/20 02:00:54;;;;;;;5.05;1.63;;;10.00;84.50;;;;;;4824116;29;20050;-72
2021/11/20 02:03:50;;;;;;;5.35;1.70;;;10.00;84.50;;;;;;4816691;29;20387;-71
2021/11/20 02:06:50;;;;;;;6.43;1.58;;;10.00;84.40;;;;;;4815901;29;20497;-72
2021/11/20 02:09:35;;;;;;;6.68;1.75;;;10.10;84.40;;;;;;4824341;29;20055;-72
2021/11/20 02:12:29;;;;;;;6.78;1.80;;;10.00;84.40;;;;;;4809761;29;20054;-72
2021/11/20 02:15:08;;;;;;;9.75;1.98;;;10.00;84.50;;;;;;4824000;29;20062;-72
2021/11/20 02:17:43;;;;;;;7.35;2.00;;;10.00;84.50;;;;;;4827944;29;20504;-72
2021/11/20 02:20:28;;;;;;;3.90;1.48;;;10.10;84.70;;;;;;4812773;29;20054;-72
2021/11/20 02:22:57;;;;;;;7.57;1.23;;;10.00;84.70;;;;;;4839345;29;20046;-72
2021/11/20 02:25:25;;;;;;;8.52;1.73;;;10.00;84.80;;;;;;4819773;29;20054;-72
2021/11/20 02:28:20;;;;;;;3.35;1.40;;;10.00;84.80;;;;;;4823641;29;20038;-72
2021/11/20 02:30:53;;;;;;;8.93;1.80;;;10.00;84.90;;;;;;4806024;29;20433;-72
2021/11/20 02:33:27;;;;;;;6.50;1.63;;;10.00;84.90;;;;;;4822166;29;20053;-72
2021/11/20 02:36:04;;;;;;;4.57;1.45;;;10.00;85.00;;;;;;4823504;29;20425;-72
2021/11/20 02:38:41;;;;;;;6.80;1.92;;;10.00;85.00;;;;;;4823523;29;20054;-72
2021/11/20 02:41:12;;;;;;;10.02;1.80;;;10.00;85.00;;;;;;4838119;29;20066;-72
2021/11/20 02:43:45;;;;;;;5.47;1.23;;;10.00;85.10;;;;;;4837147;29;20054;-72
2021/11/20 02:46:22;;;;;;;8.65;2.22;;;10.00;85.10;;;;;;4819523;29;20529;-72
2021/11/20 02:48:50;;;;;;;9.27;1.67;;;10.00;85.10;;;;;;4824415;29;20046;-72
2021/11/20 02:51:24;;;;;;;6.53;1.50;;;10.00;85.00;;;;;;4822806;29;20065;-72
2021/11/20 02:54:07;;;;;;;10.63;1.67;;;10.00;84.90;;;;;;4824238;29;20050;-72
2021/11/20 02:56:54;;;;;;;6.57;1.60;;;10.00;84.80;;;;;;4823896;29;20039;-72
2021/11/20 02:59:22;;;;;;;6.40;1.52;;;10.00;84.80;;;;;;4822945;29;20404;-72
2021/11/20 03:01:52;;;;;;;4.65;1.58;;;10.00;84.70;;;;;;4820153;29;20042;-72
2021/11/20 03:04:22;;;;;;;6.88;1.42;;;10.10;84.60;;;;;;4805532;29;20062;-72
2021/11/20 03:06:52;;;;;;;6.72;1.50;;;10.10;84.50;;;;;;4829999;29;20069;-73
2021/11/20 03:09:23;;;;;;;6.18;1.23;;;10.10;84.50;;;;;;4824004;29;20409;-73
2021/11/20 03:11:54;;;;;;;4.05;1.25;;;10.10;84.30;;;;;;4823846;29;20057;-72
2021/11/20 03:14:22;;;;;;;3.80;0.90;;;10.10;84.20;;;;;;4839474;29;20054;-73
2021/11/20 03:16:54;;;;;;;7.22;1.65;;;10.10;83.90;;;;;;4831968;29;20054;-72
2021/11/20 03:19:24;;;;;;;6.10;1.20;;;10.20;83.30;;;;;;4831983;29;20516;-72
2021/11/20 03:22:15;;;;;;;4.03;0.80;;;10.20;83.20;;;;;;4823857;29;20058;-73
2021/11/20 03:24:43;;;;;;;7.03;1.10;;;10.20;83.10;;;;;;4820693;29;20126;-73
2021/11/20 03:27:11;;;;;;;5.78;1.13;;;10.20;83.20;;;;;;4823070;29;20050;-73
2021/11/20 03:29:38;;;;;;;6.03;1.33;;;10.20;83.30;;;;;;4822916;29;20043;-73
2021/11/20 03:32:07;;;;;;;9.75;1.30;;;10.20;83.30;;;;;;4797511;29;20066;-72
2021/11/20 03:34:36;;;;;;;8.55;1.40;;;10.20;83.40;;;;;;4806344;29;20051;-72
2021/11/20 03:37:04;;;;;;;6.00;1.50;;;10.20;83.40;;;;;;4818462;29;20058;-72
2021/11/20 03:39:37;;;;;;;6.13;1.42;;;10.20;83.50;;;;;;4822995;29;20042;-72
2021/11/20 03:42:07;;;;;;;7.53;1.50;;;10.10;83.60;;;;;;4822225;29;20062;-73
2021/11/20 03:44:39;;;;;;;6.00;1.38;;;10.10;83.70;;;;;;4821088;29;20046;-73
2021/11/20 03:47:07;;;;;;;6.70;1.27;;;10.10;83.80;;;;;;4823090;29;20046;-73
2021/11/20 03:49:39;;;;;;;6.15;1.27;;;10.10;83.90;;;;;;4820223;29;20065;-72
2021/11/20 03:52:07;;;;;;;4.05;1.38;;;10.10;83.90;;;;;;4833869;29;20053;-72
2021/11/20 03:54:35;;;;;;;7.13;1.45;;;10.10;84.00;;;;;;4826833;29;20054;-72
2021/11/20 03:57:04;;;;;;;4.93;1.38;;;10.10;84.00;;;;;;4817924;29;20074;-72
2021/11/20 03:59:32;;;;;;;7.00;1.80;;;10.10;84.00;;;;;;4822735;29;20046;-72
2021/11/20 04:02:00;;;;;;;8.85;1.80;;;10.10;84.10;;;;;;4808010;29;20065;-73
2021/11/20 04:04:32;;;;;;;5.28;1.48;;;10.10;84.20;;;;;;4800479;29;20051;-73
2021/11/20 04:07:00;;;;;;;6.63;1.30;;;10.10;84.20;;;;;;4852323;29;20052;-72
2021/11/20 04:09:28;;;;;;;7.13;1.50;;;10.10;84.20;;;;;;4829561;29;20046;-73
2021/11/20 04:12:01;;;;;;;7.57;1.67;;;10.10;84.30;;;;;;4829910;29;20042;-73
2021/11/20 04:14:30;;;;;;;5.75;1.45;;;10.10;84.30;;;;;;4839105;29;20047;-73
2021/11/20 04:16:57;;;;;;;8.15;1.80;;;10.10;84.30;;;;;;4834883;29;20065;-73
2021/11/20 04:19:25;;;;;;;6.00;1.50;;;10.10;84.30;;;;;;4840389;29;20058;-72
2021/11/20 04:21:54;;;;;;;6.63;1.77;;;10.10;84.30;;;;;;4840886;29;20053;-72
2021/11/20 04:24:23;;;;;;;5.88;1.23;;;10.10;84.30;;;;;;4817732;29;20066;-72
2021/11/20 04:27:07;;;;;;;8.35;1.50;;;10.10;84.20;;;;;;4829160;29;20401;-72
2021/11/20 04:29:54;;;;;;;9.55;1.73;;;10.10;84.20;;;;;;4828351;29;20050;-73
2021/11/20 04:32:24;;;;;;;9.80;1.73;;;10.10;84.20;;;;;;4822441;29;20062;-72
2021/11/20 04:34:52;;;;;;;12.85;1.90;;;10.10;84.30;;;;;;4821136;29;20051;-72
2021/11/20 04:37:20;;;;;;;4.70;1.30;;;10.10;84.40;;;;;;4837376;29;20062;-72
2021/11/20 04:39:47;;;;;;;5.72;1.13;;;10.10;84.50;;;;;;4822493;29;20047;-72
2021/11/20 04:42:16;;;;;;;6.95;1.63;;;10.10;84.50;;;;;;4822147;29;20481;-73
2021/11/20 04:44:44;;;;;;;10.75;1.48;;;10.10;84.50;;;;;;4822307;29;20054;-73
2021/11/20 04:47:12;;;;;;;8.00;1.55;;;10.10;84.50;;;;;;4820655;29;20051;-73
2021/11/20 04:49:40;;;;;;;10.02;1.65;;;10.10;84.50;;;;;;4790886;29;20057;-72
2021/11/20 04:52:13;;;;;;;6.72;1.55;;;10.10;84.50;;;;;;4817461;29;20050;-73
2021/11/20 04:54:42;;;;;;;6.82;1.48;;;10.10;84.50;;;;;;4822076;29;20054;-72
2021/11/20 04:57:29;;;;;;;4.80;1.40;;;10.10;84.40;;;;;;4803244;29;20061;-73
2021/11/20 04:59:57;;;;;;;15.30;2.05;;;10.10;84.40;;;;;;4822779;29;20398;-72
2021/11/20 05:02:27;;;;;;;6.05;1.50;;;10.10;84.40;;;;;;4821127;29;20053;-72
2021/11/20 05:04:57;;;;;;;4.78;1.52;;;10.10;84.50;;;;;;4821948;29;20057;-73
2021/11/20 05:07:24;;;;;;;9.05;1.70;;;10.00;84.50;;;;;;4821557;29;20050;-72
2021/11/20 05:09:55;;;;;;;10.25;1.60;;;10.10;84.50;;;;;;4818345;29;20050;-72
2021/11/20 05:12:23;;;;;;;9.38;1.98;;;10.00;84.60;;;;;;4821628;29;20047;-72
2021/11/20 05:14:54;;;;;;;6.60;2.13;;;10.10;84.70;;;;;;4801880;29;20489;-72
2021/11/20 05:17:22;;;;;;;8.05;1.73;;;10.10;84.80;;;;;;4821832;29;20047;-72
2021/11/20 05:19:50;;;;;;;7.30;1.50;;;10.10;84.80;;;;;;4820653;29;20059;-72
2021/11/20 05:22:18;;;;;;;7.15;1.77;;;10.10;84.70;;;;;;4820968;29;20057;-72
2021/11/20 05:24:46;;;;;;;6.50;1.20;;;10.10;84.80;;;;;;4821050;29;20054;-72
2021/11/20 05:27:13;;;;;;;4.75;1.58;;;10.20;84.70;;;;;;4821146;29;20050;-73
2021/11/20 05:29:57;;;;;;;6.90;1.40;;;10.20;84.50;;;;;;4821991;29;20054;-75
2021/11/20 05:32:26;;;;;;;8.63;1.65;;;10.20;84.60;;;;;;4850434;29;20058;-73
2021/11/20 05:34:53;;;;;;;6.35;1.35;;;10.10;84.60;;;;;;4805159;29;20510;-72
2021/11/20 05:37:21;;;;;;;4.60;1.20;;;10.20;84.60;;;;;;4804156;29;20050;-72
2021/11/20 05:39:49;;;;;;;6.72;1.50;;;10.10;84.60;;;;;;4817446;29;20058;-73
2021/11/20 05:42:17;;;;;;;7.57;1.58;;;10.10;84.60;;;;;;4806796;29;20050;-72
2021/11/20 05:44:47;;;;;;;5.85;1.33;;;10.10;84.60;;;;;;4821732;29;20046;-72
2021/11/20 05:47:18;;;;;;;4.90;1.38;;;10.10;84.80;;;;;;4820940;29;20062;-72
2021/11/20 05:49:47;;;;;;;8.23;1.20;;;10.10;84.90;;;;;;4821682;29;20046;-72
2021/11/20 05:52:18;;;;;;;4.50;1.23;;;10.10;84.80;;;;;;4806549;29;20413;-72
2021/11/20 05:54:46;;;;;;;7.00;1.25;;;10.10;84.70;;;;;;4822336;29;20500;-72
2021/11/20 05:57:26;;;;;;;3.53;1.20;;;10.20;84.60;;;;;;4850561;29;20050;-72
2021/11/20 06:00:10;;;;;;;6.80;1.80;;;10.10;84.50;;;;;;4824780;29;20050;-73
2021/11/20 06:02:51;;;;;;;4.60;1.20;;;10.10;84.50;;;;;;4825998;29;20061;-72
2021/11/20 06:05:22;;;;;;;6.00;1.27;;;10.20;84.50;;;;;;4836775;29;20050;-72
2021/11/20 06:07:50;;;;;;;7.85;1.60;;;10.10;84.40;;;;;;4840199;29;20058;-72
2021/11/20 06:10:18;;;;;;;7.35;1.50;;;10.10;84.50;;;;;;4812303;29;20050;-72
2021/11/20 06:12:46;;;;;;;8.75;1.20;;;10.20;84.60;;;;;;4826363;29;20050;-72
2021/11/20 06:15:15;;;;;;;5.47;1.45;;;10.10;84.60;;;;;;4831969;29;20058;-72
2021/11/20 06:17:43;;;;;;;6.45;1.35;;;10.10;84.60;;;;;;4828300;29;20053;-72
2021/11/20 06:20:12;;;;;;;7.72;1.25;;;10.00;84.50;;;;;;4823874;29;20373;-72
2021/11/20 06:22:42;;;;;;;3.97;1.20;;;10.10;84.40;;;;;;4824280;29;20058;-72
2021/11/20 06:25:11;;;;;;;5.93;1.10;;;10.10;84.30;;;;;;4815385;29;20114;-72
2021/11/20 06:27:39;;;;;;;3.55;1.10;;;10.10;84.30;;;;;;4839660;29;20035;-72
2021/11/20 06:30:17;;;;;;;4.07;1.20;;;10.10;84.20;;;;;;4819142;29;20054;-72
2021/11/20 06:32:49;;;;;;;2.85;1.15;;;10.10;84.10;;;;;;4814543;29;20054;-72
2021/11/20 06:35:37;;;;;;;4.63;1.00;;;10.10;84.10;;;;;;4821272;29;20371;-72
2021/11/20 06:38:18;;;;;;;4.30;1.20;;;10.10;84.00;;;;;;4834492;29;20563;-72
2021/11/20 06:40:48;;;;;;;4.50;0.90;;;10.10;83.90;;;;;;4822124;29;20066;-72
2021/11/20 06:43:22;;;;;;;5.13;1.20;;;10.10;83.80;;;;;;4820210;29;20058;-72
2021/11/20 06:45:56;;;;;;;5.72;1.23;;;10.10;83.60;;;;;;4832581;29;20070;-72
2021/11/20 06:48:26;;;;;;;4.65;1.10;;;10.20;83.30;;;;;;4836035;29;20058;-72
2021/11/20 06:51:12;;;;;;;5.22;1.50;;;10.10;83.30;;;;;;4815564;29;20065;-73
2021/11/20 06:53:59;;;;;;;4.50;1.27;;;10.10;83.20;;;;;;4818314;29;20053;-72
2021/11/20 06:56:53;;;;;;;4.53;1.88;;;10.20;83.20;;;;;;4828137;29;20075;-73
2021/11/20 07:03:28;;;;;;;4.13;1.20;;;10.20;83.40;;;;;;4771410;30;20063;-72
2021/11/20 07:06:27;;;;;;;4.38;1.23;;;10.10;83.50;;;;;;4785456;30;20067;-72
2021/11/20 07:08:57;;;;;;;6.03;1.40;;;10.10;83.60;;;;;;4772495;30;20548;-73
2021/11/20 07:11:25;;;;;;;3.55;1.42;;;10.10;83.70;;;;;;4785855;29;20066;-72
2021/11/20 07:13:54;;;;;;;5.03;1.40;;;10.10;83.80;;;;;;4785758;30;20058;-72
2021/11/20 07:16:26;;;;;;;4.35;1.00;;;10.10;83.90;;;;;;4786405;30;20047;-72
2021/11/20 07:18:57;;;;;;;4.63;1.10;;;10.10;84.00;;;;;;4785409;30;20058;-73
2021/11/20 07:21:43;;;;;;;7.68;1.40;;;10.10;84.00;;;;;;4785562;30;20060;-71
2021/11/20 07:24:22;;;;;;;8.32;1.48;;;10.10;84.10;;;;;;4776584;29;20071;-71
2021/11/20 07:26:51;;;;;;;5.05;1.13;;;10.10;84.10;;;;;;4770264;30;20165;-71
2021/11/20 07:29:19;;;;;;;7.43;1.63;;;10.00;84.30;;;;;;4787057;29;20055;-72
2021/11/20 07:32:11;;;;;;;5.85;1.45;;;10.00;84.30;;;;;;4824173;29;20421;-71
2021/11/20 07:34:39;;;;;;;3.80;1.25;;;10.00;84.40;;;;;;4826270;29;20054;-71
2021/11/20 07:37:08;;;;;;;3.03;1.10;;;10.00;84.60;;;;;;4841834;29;20046;-71
2021/11/20 07:39:37;;;;;;;4.43;1.15;;;10.00;84.60;;;;;;4821313;29;20512;-72
2021/11/20 07:42:06;;;;;;;5.00;1.50;;;10.00;84.60;;;;;;4824141;29;20506;-71
2021/11/20 07:44:43;;;;;;;6.32;1.40;;;10.00;84.60;;;;;;4837371;29;20077;-71
2021/11/20 07:47:12;;;;;;;3.70;1.10;;;10.00;84.60;;;;;;4822461;29;20062;-71
2021/11/20 07:49:43;;;;;;;5.15;1.13;;;10.00;84.60;;;;;;4823148;29;20042;-71
2021/11/20 07:52:12;;;;;;;7.45;1.42;;;10.00;84.70;;;;;;4822677;29;20081;-71
2021/11/20 07:54:40;;;;;;;6.20;1.20;;;9.90;84.70;;;;;;4823868;29;20600;-71
2021/11/20 07:57:29;;;;;;;4.55;1.00;;;9.90;84.70;;;;;;4809858;29;20399;-71
2021/11/20 08:00:15;;;;;;;5.32;1.33;;;9.90;84.70;;;;;;4822280;29;20397;-71
2021/11/20 08:02:53;;;;;;;4.93;1.35;;;9.90;84.70;;;;;;4816891;29;21371;-71
2021/11/20 08:05:42;;;;;;;4.35;1.30;;;9.90;84.80;;;;;;4832731;29;20205;-71
2021/11/20 08:08:35;;;;;;;4.57;1.50;;;9.90;84.80;;;;;;4809718;29;20061;-72
2021/11/20 08:11:25;;;;;;;5.72;1.42;;;9.90;84.80;;;;;;4825702;29;20050;-72
2021/11/20 08:13:53;;;;;;;3.83;1.10;;;9.90;84.70;;;;;;4826603;29;20057;-72
2021/11/20 08:16:28;;;;;;;6.00;1.23;;;9.90;84.30;;;;;;4846033;29;20427;-72
2021/11/20 08:19:17;;;;;;;5.50;1.35;;;9.90;84.00;;;;;;4839635;29;20046;-72
2021/11/20 08:22:05;;;;;;;5.22;1.27;;;9.90;83.90;;;;;;4849047;29;20065;-72
2021/11/20 08:24:35;;;;;;;4.93;1.45;;;10.00;83.70;;;;;;4844308;29;20050;-72
2021/11/20 08:27:07;;;;;;;4.13;1.13;;;9.90;83.70;;;;;;4833144;29;20073;-71
2021/11/20 08:30:04;;;;;;;5.25;1.30;;;9.90;83.70;;;;;;4823997;29;20064;-71
2021/11/20 08:32:44;;;;;;;3.40;1.20;;;9.90;83.60;;;;;;4827156;29;20054;-71
2021/11/20 08:35:21;;;;;;;3.22;1.10;;;9.90;83.50;;;;;;4819300;29;20043;-72
2021/11/20 08:38:12;;;;;;;2.38;0.70;;;10.00;83.20;;;;;;4811790;29;20062;-72
2021/11/20 08:40:54;;;;;;;2.05;0.90;;;10.00;82.20;;;;;;4835741;29;20050;-71
2021/11/20 08:43:28;;;;;;;3.08;0.90;;;10.00;81.90;;;;;;4830502;29;20042;-72
2021/11/20 08:46:20;;;;;;;2.53;0.68;;;10.00;81.90;;;;;;4802329;29;20523;-73
2021/11/20 08:48:48;;;;;;;4.60;0.90;;;10.00;80.70;;;;;;4830512;29;20505;-71
2021/11/20 08:51:19;;;;;;;1.83;0.82;;;10.00;80.00;;;;;;4777209;29;20058;-72
2021/11/20 08:53:50;;;;;;;3.78;0.75;;;10.00;79.60;;;;;;4821623;29;20042;-72
2021/11/20 08:56:19;;;;;;;4.13;0.70;;;10.00;79.30;;;;;;4821028;29;20050;-72
2021/11/20 08:59:07;;;;;;;5.30;0.82;;;10.10;79.50;;;;;;4822688;29;20050;-72
2021/11/20 09:02:09;;;;;;;5.38;0.80;;;10.10;79.60;;;;;;4821203;29;20065;-72
2021/11/20 09:05:02;;;;;;;2.28;0.57;;;10.10;79.70;;;;;;4823916;29;20042;-73
2021/11/20 09:07:41;;;;;;;2.65;0.50;;;10.10;79.50;;;;;;4823736;29;20500;-73
2021/11/20 09:10:23;;;;;;;6.03;1.05;;;10.10;78.80;;;;;;4818444;29;20059;-72
2021/11/20 09:13:02;;;;;;;0.50;0.35;;;10.10;78.10;;;;;;4804323;29;20054;-72
2021/11/20 09:15:32;;;;;;;1.73;0.40;;;10.20;78.10;;;;;;4808128;29;20051;-72
2021/11/20 09:18:13;;;;;;;;;;;10.20;78.10;;;;;;4822249;29;20050;-72
2021/11/20 09:20:42;;;;;;;2.67;0.50;;;10.20;78.10;;;;;;4819941;29;20047;-73
2021/11/20 09:23:30;;;;;;;5.55;0.60;;;10.20;78.00;;;;;;4817692;29;20402;-73
2021/11/20 09:26:28;;;;;;;2.03;0.30;;;10.20;77.60;;;;;;4819877;29;20046;-72
2021/11/20 09:28:59;;;;;;;1.88;0.43;;;10.20;77.70;;;;;;4805590;29;20494;-71
2021/11/20 09:31:30;;;;;;;2.53;0.47;;;10.30;77.90;;;;;;4817612;29;20043;-73
2021/11/20 09:33:59;;;;;;;2.05;0.52;;;10.30;77.80;;;;;;4816731;29;20050;-72
2021/11/20 09:36:29;;;;;;;2.92;0.50;;;10.30;77.90;;;;;;4825602;29;20489;-72
2021/11/20 09:39:37;;;;;;;2.78;0.68;;;10.30;77.70;;;;;;4822779;29;20042;-73
2021/11/20 09:42:18;;;;;;;4.55;0.70;;;10.40;77.70;;;;;;4825017;29;20473;-73
2021/11/20 09:44:52;;;;;;;1.70;0.60;;;10.40;77.20;;;;;;4824811;29;20057;-72
2021/11/20 09:47:29;;;;;;;3.05;0.60;;;10.50;77.40;;;;;;4830740;29;20055;-73
2021/11/20 09:50:10;;;;;;;2.53;0.40;;;10.50;77.10;;;;;;4823888;29;20056;-73
2021/11/20 09:52:40;;;;;;;2.67;0.35;;;10.50;76.90;;;;;;4810622;29;20054;-73
2021/11/20 09:55:10;;;;;;;3.20;0.77;;;10.60;77.00;;;;;;4825906;29;20058;-73
2021/11/20 09:57:54;;;;;;;1.65;0.40;;;10.60;76.70;;;;;;4831637;29;20371;-74
2021/11/20 10:00:24;;;;;;;1.30;0.50;;;10.60;76.70;;;;;;4826411;29;20046;-73
2021/11/20 10:02:56;;;;;;;6.68;0.60;;;10.70;76.70;;;;;;4823484;29;20065;-72
2021/11/20 10:05:31;;;;;;;0.68;0.40;;;10.80;76.70;;;;;;4821383;29;20050;-72
2021/11/20 10:08:20;;;;;;;2.38;0.60;;;10.80;76.40;;;;;;4822998;29;20054;-73
2021/11/20 10:10:56;;;;;;;1.38;0.50;;;10.80;76.10;;;;;;4833389;29;20562;-73
2021/11/20 10:13:27;;;;;;;2.05;0.50;;;10.90;76.00;;;;;;4835448;29;20554;-73
2021/11/20 10:16:02;;;;;;;1.23;0.50;;;10.90;76.10;;;;;;4821755;29;20047;-74
2021/11/20 10:18:37;;;;;;;1.35;0.50;;;10.90;76.10;;;;;;4825802;29;20057;-73
2021/11/20 10:21:37;;;;;;;3.15;0.75;;;11.00;75.40;;;;;;4826389;29;20138;-73
2021/11/20 10:24:16;;;;;;;4.35;0.93;;;11.00;75.00;;;;;;4835250;29;20081;-73
2021/11/20 10:26:46;;;;;;;2.75;1.10;;;11.00;75.20;;;;;;4823419;29;20595;-74
2021/11/20 10:29:48;;;;;;;2.60;0.50;;;11.00;75.10;;;;;;4825455;29;20054;-73
2021/11/20 10:32:20;;;;;;;3.30;0.57;;;11.00;74.70;;;;;;4825816;29;20062;-72
2021/11/20 10:34:58;;;;;;;2.55;0.60;;;11.00;74.80;;;;;;4825283;29;20054;-73
2021/11/20 10:37:34;;;;;;;4.03;0.57;;;11.10;74.20;;;;;;4822100;29;20058;-73
2021/11/20 10:40:15;;;;;;;2.15;0.50;;;11.00;73.90;;;;;;4828863;29;20099;-72
2021/11/20 10:42:51;;;;;;;1.02;0.40;;;11.00;74.00;;;;;;4846422;29;20145;-73
2021/11/20 10:45:30;;;;;;;1.20;0.57;;;11.00;73.80;;;;;;4832274;29;20043;-72
2021/11/20 10:48:10;;;;;;;1.17;0.50;;;11.00;73.70;;;;;;4823917;29;20055;-73
2021/11/20 10:50:43;;;;;;;4.13;0.73;;;11.00;73.50;;;;;;4821278;29;20050;-72
2021/11/20 10:53:44;;;;;;;2.25;0.73;;;11.00;73.40;;;;;;4834216;29;21394;-74
2021/11/20 10:56:33;;;;;;;0.82;0.65;;;11.10;73.60;;;;;;4828328;29;20061;-76
2021/11/20 10:59:16;;;;;;;1.15;0.70;;;11.10;73.80;;;;;;4826134;29;20046;-72
2021/11/20 11:02:04;;;;;;;5.97;0.70;;;11.20;73.30;;;;;;4824881;29;20453;-73
2021/11/20 11:04:50;;;;;;;1.52;0.70;;;11.20;72.90;;;;;;4824887;29;20402;-73
2021/11/20 11:07:42;;;;;;;1.35;0.70;;;11.30;73.20;;;;;;4824872;29;20075;-72
2021/11/20 11:10:20;;;;;;;3.42;0.73;;;11.30;73.10;;;;;;4823991;29;20058;-74
2021/11/20 11:13:09;;;;;;;0.57;0.50;;;11.30;72.80;;;;;;4827943;29;20425;-73
2021/11/20 11:15:48;;;;;;;1.40;0.70;;;11.40;71.40;;;;;;4841492;29;20049;-72
2021/11/20 11:18:36;;;;;;;2.95;1.00;;;11.40;71.30;;;;;;4840677;29;20412;-73
2021/11/20 11:21:34;;;;;;;2.40;1.20;;;11.40;70.70;;;;;;4824991;29;20061;-72
2021/11/20 11:24:12;;;;;;;2.15;1.30;;;11.40;71.00;;;;;;4845459;29;20544;-71
2021/11/20 11:27:02;;;;;;;3.85;1.30;;;11.50;70.80;;;;;;4823514;29;20042;-72
2021/11/20 11:29:59;;;;;;;1.83;1.20;;;11.60;70.60;;;;;;4807365;29;20062;-72
2021/11/20 11:32:31;;;;;;;2.72;1.13;;;11.70;70.50;;;;;;4821083;29;20049;-72
2021/11/20 11:35:17;;;;;;;2.27;1.20;;;11.70;70.50;;;;;;4812287;29;20054;-71
2021/11/20 11:38:05;;;;;;;3.70;1.25;;;11.70;70.70;;;;;;4823238;29;20654;-72
2021/11/20 11:40:48;;;;;;;4.40;1.30;;;11.80;70.00;;;;;;4806408;29;20532;-73
2021/11/20 11:43:40;;;;;;;5.00;1.38;;;11.70;70.10;;;;;;4814657;29;20110;-74
2021/11/20 11:46:29;;;;;;;3.22;1.30;;;11.80;70.20;;;;;;4823734;29;20109;-73
2021/11/20 11:49:22;;;;;;;2.03;1.13;;;11.80;69.20;;;;;;4820990;29;20077;-71
2021/11/20 11:52:14;;;;;;;3.42;1.50;;;11.70;69.60;;;;;;4816559;29;20482;-71
2021/11/20 11:54:50;;;;;;;2.80;0.98;;;11.60;69.80;;;;;;4823469;29;20054;-72
2021/11/20 11:57:17;;;;;;;2.22;1.08;;;11.60;69.80;;;;;;4819845;29;20125;-71
2021/11/20 12:00:13;;;;;;;4.10;1.20;;;11.70;70.00;;;;;;4824127;29;20492;-71
2021/11/20 12:02:53;;;;;;;2.53;0.90;;;11.80;69.90;;;;;;4836982;29;20062;-71
2021/11/20 12:05:31;;;;;;;1.10;0.80;;;11.90;69.70;;;;;;4823568;29;20409;-71
2021/11/20 12:08:18;;;;;;;1.00;0.60;;;12.00;69.70;;;;;;4822367;29;20520;-72
2021/11/20 12:10:55;;;;;;;1.95;0.82;;;12.20;69.30;;;;;;4822811;29;20122;-71
2021/11/20 12:13:49;;;;;;;1.55;0.88;;;12.20;68.10;;;;;;4823391;29;20057;-72
2021/11/20 12:16:23;;;;;;;1.80;0.80;;;12.20;68.20;;;;;;4839979;29;20049;-72
2021/11/20 12:19:05;;;;;;;0.90;0.68;;;12.20;67.90;;;;;;4814221;29;20439;-72
2021/11/20 12:21:48;;;;;;;1.60;0.80;;;12.20;68.00;;;;;;4816834;29;20049;-72
2021/11/20 12:24:32;;;;;;;1.90;0.80;;;12.10;68.30;;;;;;4817169;29;20047;-72
2021/11/20 12:27:22;;;;;;;2.90;0.70;;;12.00;68.60;;;;;;4815225;29;20063;-71
2021/11/20 12:29:53;;;;;;;3.13;0.65;;;12.00;68.90;;;;;;4816870;29;20063;-72
2021/11/20 12:32:51;;;;;;;2.00;0.70;;;12.10;68.70;;;;;;4812776;29;20413;-72
2021/11/20 12:35:37;;;;;;;1.70;0.68;;;12.20;68.40;;;;;;4833737;29;20050;-71
2021/11/20 12:38:21;;;;;;;6.75;0.95;;;12.20;68.20;;;;;;4818604;29;20062;-71
2021/11/20 12:40:50;;;;;;;;;;;12.20;68.30;;;;;;4821235;29;20473;-72
2021/11/20 12:43:36;;;;;;;0.30;0.30;;;12.10;67.80;;;;;;4812715;29;19924;-72
2021/11/20 12:46:52;;;;;;;1.20;0.60;;;12.00;67.30;;;;;;4823656;29;20054;-73
2021/11/20 12:49:56;;;;;;;2.60;0.60;;;12.00;67.50;;;;;;4817034;29;20066;-73
2021/11/20 12:52:48;;;;;;;5.07;0.70;;;12.00;67.70;;;;;;4815497;29;20042;-73
2021/11/20 12:55:19;;;;;;;2.40;0.60;;;12.00;67.90;;;;;;4816507;29;20505;-70
2021/11/20 12:57:51;;;;;;;3.30;0.77;;;12.00;67.70;;;;;;4813397;29;20390;-71
2021/11/20 13:00:29;;;;;;;2.70;0.68;;;12.10;67.80;;;;;;4814720;29;20042;-71
2021/11/20 13:03:24;;;;;;;1.50;0.63;;;12.20;67.80;;;;;;4826386;29;20063;-71
2021/11/20 13:06:01;;;;;;;5.60;0.80;;;12.30;67.40;;;;;;4823242;29;20066;-71
2021/11/20 13:08:39;;;;;;;4.45;0.70;;;12.50;66.60;;;;;;4823685;29;20053;-72
2021/11/20 13:11:14;;;;;;;4.70;0.52;;;12.40;65.60;;;;;;4818989;29;20050;-74
2021/11/20 13:14:11;;;;;;;;;;;12.30;65.50;;;;;;4818599;29;20065;-73
2021/11/20 13:16:59;;;;;;;1.77;0.47;;;12.20;65.80;;;;;;4820606;29;19925;-72
2021/11/20 13:19:51;;;;;;;0.82;0.35;;;12.00;66.80;;;;;;4817165;29;20055;-73
2021/11/20 13:22:33;;;;;;;2.25;0.52;;;12.00;66.60;;;;;;4821603;29;20046;-72
2021/11/20 13:25:12;;;;;;;2.05;0.40;;;12.00;66.70;;;;;;4819477;29;20065;-74
2021/11/20 13:27:43;;;;;;;3.63;0.45;;;11.90;67.10;;;;;;4819945;29;20426;-73
2021/11/20 13:30:14;;;;;;;3.55;0.57;;;11.90;67.30;;;;;;4820251;29;20397;-74
2021/11/20 13:32:46;;;;;;;1.17;0.40;;;11.90;67.70;;;;;;4820258;29;20057;-73
2021/11/20 13:35:14;;;;;;;1.27;0.35;;;11.90;67.40;;;;;;4825399;29;20057;-73
2021/11/20 13:37:49;;;;;;;5.20;0.60;;;11.90;66.60;;;;;;4827173;29;20073;-73
2021/11/20 13:40:25;;;;;;;2.45;0.50;;;12.10;66.70;;;;;;4828676;29;20062;-72
2021/11/20 13:42:53;;;;;;;3.92;0.63;;;12.40;64.80;;;;;;4828363;29;20075;-76